<?xml version='1.0' encoding='UTF-8'?><gpx version="1.1" creator="JPX - https://github.com/jenetics/jpx" xmlns="http://www.topografix.com/GPX/1/1"><trk><trkseg><trkpt lat="38.81033038033762" lon="-9.326217095100205"><ele>214.0</ele><time>2026-04-25T15:31:27Z</time></trkpt><trkpt lat="38.81039077288336" lon="-9.326096187089743"><ele>213.99999999999997</ele><time>2026-04-25T15:31:28Z</time></trkpt><trkpt lat="38.810449731868545" lon="-9.325970712203004"><ele>213.99999999999997</ele><time>2026-04-25T15:31:29Z</time></trkpt><trkpt lat="38.81050860788128" lon="-9.325850534451705"><ele>214.0</ele><time>2026-04-25T15:31:30Z</time></trkpt><trkpt lat="38.81056599392649" lon="-9.325731138146553"><ele>214.0</ele><time>2026-04-25T15:31:31Z</time></trkpt><trkpt lat="38.8106205431006" lon="-9.325604625398489"><ele>214.33333333333331</ele><time>2026-04-25T15:31:32Z</time></trkpt><trkpt lat="38.8106839051915" lon="-9.325458711006599"><ele>214.66666666666669</ele><time>2026-04-25T15:31:33Z</time></trkpt><trkpt lat="38.810751342108034" lon="-9.325303566561956"><ele>215.0</ele><time>2026-04-25T15:31:34Z</time></trkpt><trkpt lat="38.810877629128434" lon="-9.325105460805277"><ele>215.0</ele><time>2026-04-25T15:31:35Z</time></trkpt><trkpt lat="38.81097022397528" lon="-9.325014368185863"><ele>215.0</ele><time>2026-04-25T15:31:36Z</time></trkpt><trkpt lat="38.81108804404159" lon="-9.324955450093848"><ele>215.0</ele><time>2026-04-25T15:31:37Z</time></trkpt><trkpt lat="38.81124180542051" lon="-9.324875357457227"><ele>215.0</ele><time>2026-04-25T15:31:38Z</time></trkpt><trkpt lat="38.81140758101161" lon="-9.324781597369185"><ele>214.66666666666669</ele><time>2026-04-25T15:31:39Z</time></trkpt><trkpt lat="38.811565715214805" lon="-9.324685061960095"><ele>214.33333333333331</ele><time>2026-04-25T15:31:40Z</time></trkpt><trkpt lat="38.81172438259657" lon="-9.324587064871881"><ele>214.0</ele><time>2026-04-25T15:31:41Z</time></trkpt><trkpt lat="38.81187958817684" lon="-9.32447979976948"><ele>213.66666666666666</ele><time>2026-04-25T15:31:42Z</time></trkpt><trkpt lat="38.81205189620452" lon="-9.324359114760208"><ele>213.33333333333331</ele><time>2026-04-25T15:31:43Z</time></trkpt><trkpt lat="38.81218635410758" lon="-9.324213469322137"><ele>213.0</ele><time>2026-04-25T15:31:44Z</time></trkpt><trkpt lat="38.812320052104745" lon="-9.324065734473388"><ele>213.0</ele><time>2026-04-25T15:31:45Z</time></trkpt><trkpt lat="38.81243690936481" lon="-9.323913194376647"><ele>213.0</ele><time>2026-04-25T15:31:46Z</time></trkpt><trkpt lat="38.81252519970096" lon="-9.323757523896662"><ele>213.0</ele><time>2026-04-25T15:31:47Z</time></trkpt><trkpt lat="38.812596897057716" lon="-9.323580268703765"><ele>212.0</ele><time>2026-04-25T15:31:48Z</time></trkpt><trkpt lat="38.812613706067545" lon="-9.323385563786875"><ele>211.0</ele><time>2026-04-25T15:31:49Z</time></trkpt><trkpt lat="38.812611935665174" lon="-9.323174857870852"><ele>210.0</ele><time>2026-04-25T15:31:50Z</time></trkpt><trkpt lat="38.81260629887776" lon="-9.322933013777131"><ele>209.66666666666669</ele><time>2026-04-25T15:31:51Z</time></trkpt><trkpt lat="38.812600436324125" lon="-9.322673423367561"><ele>209.33333333333334</ele><time>2026-04-25T15:31:52Z</time></trkpt><trkpt lat="38.81259547103963" lon="-9.322386985858667"><ele>209.0</ele><time>2026-04-25T15:31:53Z</time></trkpt><trkpt lat="38.812595803297995" lon="-9.322077257496007"><ele>208.5</ele><time>2026-04-25T15:31:54Z</time></trkpt><trkpt lat="38.81260272651825" lon="-9.321766060782544"><ele>208.0</ele><time>2026-04-25T15:31:55Z</time></trkpt><trkpt lat="38.81262746060512" lon="-9.32149162356482"><ele>207.33333333333331</ele><time>2026-04-25T15:31:56Z</time></trkpt><trkpt lat="38.81263076101248" lon="-9.321240295828009"><ele>206.66666666666669</ele><time>2026-04-25T15:31:57Z</time></trkpt><trkpt lat="38.812635512356366" lon="-9.320994150544465"><ele>206.0</ele><time>2026-04-25T15:31:58Z</time></trkpt><trkpt lat="38.81265487468233" lon="-9.320759171490444"><ele>206.0</ele><time>2026-04-25T15:31:59Z</time></trkpt><trkpt lat="38.812685510069954" lon="-9.32053320027157"><ele>206.0</ele><time>2026-04-25T15:32:00Z</time></trkpt><trkpt lat="38.812731905865014" lon="-9.32030158321723"><ele>206.0</ele><time>2026-04-25T15:32:01Z</time></trkpt><trkpt lat="38.81279549467294" lon="-9.320072425195413"><ele>206.0</ele><time>2026-04-25T15:32:02Z</time></trkpt><trkpt lat="38.81285751101035" lon="-9.319839728710264"><ele>206.0</ele><time>2026-04-25T15:32:03Z</time></trkpt><trkpt lat="38.81291394992758" lon="-9.319614307785647"><ele>206.0</ele><time>2026-04-25T15:32:04Z</time></trkpt><trkpt lat="38.81296564293243" lon="-9.319402191347857"><ele>205.33333333333334</ele><time>2026-04-25T15:32:05Z</time></trkpt><trkpt lat="38.813014420443245" lon="-9.31919906311359"><ele>204.66666666666669</ele><time>2026-04-25T15:32:06Z</time></trkpt><trkpt lat="38.81306542067514" lon="-9.318996546399395"><ele>204.0</ele><time>2026-04-25T15:32:07Z</time></trkpt><trkpt lat="38.8131173023802" lon="-9.3187825116366"><ele>202.33333333333331</ele><time>2026-04-25T15:32:08Z</time></trkpt><trkpt lat="38.81316660049639" lon="-9.318580904597301"><ele>200.66666666666666</ele><time>2026-04-25T15:32:09Z</time></trkpt><trkpt lat="38.81322010323224" lon="-9.318391927502665"><ele>199.0</ele><time>2026-04-25T15:32:10Z</time></trkpt><trkpt lat="38.81329336229379" lon="-9.318212317980558"><ele>196.66666666666666</ele><time>2026-04-25T15:32:11Z</time></trkpt><trkpt lat="38.81338937245904" lon="-9.31804806899315"><ele>194.33333333333331</ele><time>2026-04-25T15:32:12Z</time></trkpt><trkpt lat="38.813506563379114" lon="-9.317905020513345"><ele>192.0</ele><time>2026-04-25T15:32:13Z</time></trkpt><trkpt lat="38.8136450418453" lon="-9.317775534819578"><ele>190.33333333333334</ele><time>2026-04-25T15:32:14Z</time></trkpt><trkpt lat="38.81381047576399" lon="-9.317694737546056"><ele>188.66666666666669</ele><time>2026-04-25T15:32:15Z</time></trkpt><trkpt lat="38.813971410534414" lon="-9.317587419115615"><ele>187.0</ele><time>2026-04-25T15:32:16Z</time></trkpt><trkpt lat="38.814140525422566" lon="-9.317507866649025"><ele>187.0</ele><time>2026-04-25T15:32:17Z</time></trkpt><trkpt lat="38.814307491134564" lon="-9.317428807766643"><ele>187.0</ele><time>2026-04-25T15:32:18Z</time></trkpt><trkpt lat="38.81447303947209" lon="-9.317341680940984"><ele>187.0</ele><time>2026-04-25T15:32:19Z</time></trkpt><trkpt lat="38.814636513434934" lon="-9.317262043289078"><ele>185.66666666666669</ele><time>2026-04-25T15:32:20Z</time></trkpt><trkpt lat="38.81479628722112" lon="-9.31718695112587"><ele>184.33333333333334</ele><time>2026-04-25T15:32:21Z</time></trkpt><trkpt lat="38.81495742510371" lon="-9.317110376895391"><ele>183.0</ele><time>2026-04-25T15:32:22Z</time></trkpt><trkpt lat="38.81511628121316" lon="-9.317036747688594"><ele>183.0</ele><time>2026-04-25T15:32:23Z</time></trkpt><trkpt lat="38.81527808703633" lon="-9.316982810815466"><ele>183.0</ele><time>2026-04-25T15:32:24Z</time></trkpt><trkpt lat="38.81544529983925" lon="-9.316955900092854"><ele>183.0</ele><time>2026-04-25T15:32:25Z</time></trkpt><trkpt lat="38.81560919645191" lon="-9.316954980180496"><ele>183.0</ele><time>2026-04-25T15:32:26Z</time></trkpt><trkpt lat="38.81577126078073" lon="-9.316969938835559"><ele>183.0</ele><time>2026-04-25T15:32:27Z</time></trkpt><trkpt lat="38.81593585941235" lon="-9.316992178251969"><ele>183.0</ele><time>2026-04-25T15:32:28Z</time></trkpt><trkpt lat="38.81610484033549" lon="-9.317019373423124"><ele>181.66666666666666</ele><time>2026-04-25T15:32:29Z</time></trkpt><trkpt lat="38.816271612164385" lon="-9.317040698184053"><ele>180.33333333333331</ele><time>2026-04-25T15:32:30Z</time></trkpt><trkpt lat="38.81643350878139" lon="-9.317055660232406"><ele>179.0</ele><time>2026-04-25T15:32:31Z</time></trkpt><trkpt lat="38.81659863806332" lon="-9.31706896635997"><ele>179.0</ele><time>2026-04-25T15:32:32Z</time></trkpt><trkpt lat="38.816756075583676" lon="-9.317083086431115"><ele>179.0</ele><time>2026-04-25T15:32:33Z</time></trkpt><trkpt lat="38.81691209484839" lon="-9.317096979620812"><ele>179.0</ele><time>2026-04-25T15:32:34Z</time></trkpt><trkpt lat="38.817062150660185" lon="-9.317126751365262"><ele>178.5</ele><time>2026-04-25T15:32:35Z</time></trkpt><trkpt lat="38.81720828255435" lon="-9.31715124038632"><ele>178.0</ele><time>2026-04-25T15:32:36Z</time></trkpt><trkpt lat="38.817348311515616" lon="-9.317180884961692"><ele>177.5</ele><time>2026-04-25T15:32:37Z</time></trkpt><trkpt lat="38.81748060017847" lon="-9.317222093576234"><ele>177.0</ele><time>2026-04-25T15:32:38Z</time></trkpt><trkpt lat="38.817596424502966" lon="-9.317312803043022"><ele>175.0</ele><time>2026-04-25T15:32:39Z</time></trkpt><trkpt lat="38.817710571572896" lon="-9.317412131483577"><ele>173.0</ele><time>2026-04-25T15:32:40Z</time></trkpt><trkpt lat="38.81781710153514" lon="-9.317528987554205"><ele>171.0</ele><time>2026-04-25T15:32:41Z</time></trkpt><trkpt lat="38.817903934271214" lon="-9.317671670233564"><ele>169.0</ele><time>2026-04-25T15:32:42Z</time></trkpt><trkpt lat="38.81796173210426" lon="-9.317835220253546"><ele>169.0</ele><time>2026-04-25T15:32:43Z</time></trkpt><trkpt lat="38.818014239709264" lon="-9.31801816279875"><ele>169.0</ele><time>2026-04-25T15:32:44Z</time></trkpt><trkpt lat="38.81805934918198" lon="-9.318210648861179"><ele>169.0</ele><time>2026-04-25T15:32:45Z</time></trkpt><trkpt lat="38.818095743413224" lon="-9.318412559029722"><ele>168.66666666666669</ele><time>2026-04-25T15:32:46Z</time></trkpt><trkpt lat="38.8181375303465" lon="-9.318614523716192"><ele>168.33333333333334</ele><time>2026-04-25T15:32:47Z</time></trkpt><trkpt lat="38.81816036655379" lon="-9.318820325437285"><ele>168.0</ele><time>2026-04-25T15:32:48Z</time></trkpt><trkpt lat="38.818183188350645" lon="-9.319026672386554"><ele>167.0</ele><time>2026-04-25T15:32:49Z</time></trkpt><trkpt lat="38.81820837309818" lon="-9.319221976402233"><ele>166.0</ele><time>2026-04-25T15:32:50Z</time></trkpt><trkpt lat="38.81823504049192" lon="-9.319418452504808"><ele>165.0</ele><time>2026-04-25T15:32:51Z</time></trkpt><trkpt lat="38.81826262854136" lon="-9.319615315735577"><ele>163.66666666666666</ele><time>2026-04-25T15:32:52Z</time></trkpt><trkpt lat="38.81829011352617" lon="-9.31980949549148"><ele>162.33333333333331</ele><time>2026-04-25T15:32:53Z</time></trkpt><trkpt lat="38.818326239981246" lon="-9.320000969694366"><ele>161.0</ele><time>2026-04-25T15:32:54Z</time></trkpt><trkpt lat="38.81840570102633" lon="-9.320162680628831"><ele>158.25</ele><time>2026-04-25T15:32:55Z</time></trkpt><trkpt lat="38.818488817640194" lon="-9.320312758462556"><ele>155.5</ele><time>2026-04-25T15:32:56Z</time></trkpt><trkpt lat="38.818601881317555" lon="-9.32043339542026"><ele>152.75</ele><time>2026-04-25T15:32:57Z</time></trkpt><trkpt lat="38.818732383793154" lon="-9.320528000309263"><ele>150.0</ele><time>2026-04-25T15:32:58Z</time></trkpt><trkpt lat="38.818879733754954" lon="-9.32059929086125"><ele>150.0</ele><time>2026-04-25T15:32:59Z</time></trkpt><trkpt lat="38.81904175861096" lon="-9.320656853779735"><ele>150.0</ele><time>2026-04-25T15:33:00Z</time></trkpt><trkpt lat="38.81920801590994" lon="-9.320696340114763"><ele>150.0</ele><time>2026-04-25T15:33:01Z</time></trkpt><trkpt lat="38.81938603670886" lon="-9.320740026128858"><ele>149.66666666666666</ele><time>2026-04-25T15:33:02Z</time></trkpt><trkpt lat="38.81956567720366" lon="-9.320784137816387"><ele>149.33333333333331</ele><time>2026-04-25T15:33:03Z</time></trkpt><trkpt lat="38.81975758009599" lon="-9.320842770542054"><ele>149.0</ele><time>2026-04-25T15:33:04Z</time></trkpt><trkpt lat="38.81994822715691" lon="-9.320884594416029"><ele>149.0</ele><time>2026-04-25T15:33:05Z</time></trkpt><trkpt lat="38.820138271098024" lon="-9.320926535727004"><ele>149.0</ele><time>2026-04-25T15:33:06Z</time></trkpt><trkpt lat="38.82032691809476" lon="-9.320971085239773"><ele>149.0</ele><time>2026-04-25T15:33:07Z</time></trkpt><trkpt lat="38.820512267626825" lon="-9.321025213950557"><ele>150.66666666666666</ele><time>2026-04-25T15:33:08Z</time></trkpt><trkpt lat="38.82070025047348" lon="-9.321068806758696"><ele>152.33333333333334</ele><time>2026-04-25T15:33:09Z</time></trkpt><trkpt lat="38.82090434350894" lon="-9.321116401512867"><ele>154.0</ele><time>2026-04-25T15:33:10Z</time></trkpt><trkpt lat="38.821122279078494" lon="-9.321167909681428"><ele>154.0</ele><time>2026-04-25T15:33:11Z</time></trkpt><trkpt lat="38.82134451027023" lon="-9.321221474948924"><ele>154.0</ele><time>2026-04-25T15:33:12Z</time></trkpt><trkpt lat="38.82157459850853" lon="-9.321278376061713"><ele>154.0</ele><time>2026-04-25T15:33:13Z</time></trkpt><trkpt lat="38.82180774898345" lon="-9.32134038799845"><ele>154.0</ele><time>2026-04-25T15:33:13.999Z</time></trkpt><trkpt lat="38.82204446339292" lon="-9.32139837692019"><ele>154.66666666666669</ele><time>2026-04-25T15:33:14.999Z</time></trkpt><trkpt lat="38.82226781277703" lon="-9.321449814798541"><ele>155.33333333333334</ele><time>2026-04-25T15:33:15.999Z</time></trkpt><trkpt lat="38.82245879042927" lon="-9.3214963582991"><ele>156.0</ele><time>2026-04-25T15:33:16.999Z</time></trkpt><trkpt lat="38.822653385473366" lon="-9.321541782351058"><ele>157.33333333333334</ele><time>2026-04-25T15:33:17.999Z</time></trkpt><trkpt lat="38.82286134484583" lon="-9.321595217232664"><ele>158.66666666666669</ele><time>2026-04-25T15:33:18.999Z</time></trkpt><trkpt lat="38.823060066664496" lon="-9.32164024464683"><ele>160.0</ele><time>2026-04-25T15:33:19.999Z</time></trkpt><trkpt lat="38.823239674510376" lon="-9.321685848972422"><ele>160.0</ele><time>2026-04-25T15:33:20.999Z</time></trkpt><trkpt lat="38.82340744952369" lon="-9.321739456491704"><ele>160.0</ele><time>2026-04-25T15:33:21.999Z</time></trkpt><trkpt lat="38.823552325956314" lon="-9.321808596304445"><ele>160.0</ele><time>2026-04-25T15:33:22.999Z</time></trkpt><trkpt lat="38.82368747920232" lon="-9.321895099672941"><ele>160.25</ele><time>2026-04-25T15:33:23.999Z</time></trkpt><trkpt lat="38.82381513211786" lon="-9.32199791572046"><ele>160.5</ele><time>2026-04-25T15:33:24.999Z</time></trkpt><trkpt lat="38.82394128386541" lon="-9.322093041167648"><ele>160.75</ele><time>2026-04-25T15:33:25.999Z</time></trkpt><trkpt lat="38.82406121266777" lon="-9.322178515462989"><ele>161.0</ele><time>2026-04-25T15:33:26.999Z</time></trkpt><trkpt lat="38.824177702239425" lon="-9.322254006923252"><ele>160.75</ele><time>2026-04-25T15:33:27.999Z</time></trkpt><trkpt lat="38.82429057332738" lon="-9.322333882260354"><ele>160.5</ele><time>2026-04-25T15:33:28.999Z</time></trkpt><trkpt lat="38.82440005712456" lon="-9.322407734053686"><ele>160.25</ele><time>2026-04-25T15:33:29.999Z</time></trkpt><trkpt lat="38.82450570577881" lon="-9.3224806655013"><ele>160.0</ele><time>2026-04-25T15:33:30.999Z</time></trkpt><trkpt lat="38.82461984749514" lon="-9.322549267242259"><ele>160.0</ele><time>2026-04-25T15:33:32Z</time></trkpt><trkpt lat="38.82473486925855" lon="-9.322625275212829"><ele>160.0</ele><time>2026-04-25T15:33:33Z</time></trkpt><trkpt lat="38.82485667923495" lon="-9.3227065245344"><ele>160.0</ele><time>2026-04-25T15:33:34Z</time></trkpt><trkpt lat="38.824974956644446" lon="-9.322787559976177"><ele>160.0</ele><time>2026-04-25T15:33:35Z</time></trkpt><trkpt lat="38.825091332320326" lon="-9.322865785958452"><ele>162.0</ele><time>2026-04-25T15:33:36Z</time></trkpt><trkpt lat="38.82517713499706" lon="-9.322989001881199"><ele>164.0</ele><time>2026-04-25T15:33:37Z</time></trkpt><trkpt lat="38.825243450662434" lon="-9.323119356803849"><ele>166.0</ele><time>2026-04-25T15:33:38Z</time></trkpt><trkpt lat="38.825305606363145" lon="-9.323268520708131"><ele>168.0</ele><time>2026-04-25T15:33:39Z</time></trkpt><trkpt lat="38.825368002059946" lon="-9.3234205820857"><ele>168.0</ele><time>2026-04-25T15:33:40Z</time></trkpt><trkpt lat="38.825429188563994" lon="-9.323568750275621"><ele>168.0</ele><time>2026-04-25T15:33:41Z</time></trkpt><trkpt lat="38.825485825791134" lon="-9.323712982639343"><ele>168.0</ele><time>2026-04-25T15:33:42Z</time></trkpt><trkpt lat="38.82554430779639" lon="-9.323852131014911"><ele>168.0</ele><time>2026-04-25T15:33:43Z</time></trkpt><trkpt lat="38.82556683050409" lon="-9.32399729600645"><ele>167.2</ele><time>2026-04-25T15:33:44Z</time></trkpt><trkpt lat="38.825565432223165" lon="-9.324144349493281"><ele>166.4</ele><time>2026-04-25T15:33:45Z</time></trkpt><trkpt lat="38.82556554976913" lon="-9.32427849341384"><ele>165.6</ele><time>2026-04-25T15:33:46Z</time></trkpt><trkpt lat="38.825566923979814" lon="-9.32439565803576"><ele>164.79999999999998</ele><time>2026-04-25T15:33:47Z</time></trkpt><trkpt lat="38.82557838224067" lon="-9.324516345580516"><ele>164.0</ele><time>2026-04-25T15:33:48Z</time></trkpt><trkpt lat="38.8255924668515" lon="-9.324614382663857"><ele>164.0</ele><time>2026-04-25T15:33:49Z</time></trkpt><trkpt lat="38.82561876714054" lon="-9.324688931693323"><ele>164.0</ele><time>2026-04-25T15:33:50Z</time></trkpt><trkpt lat="38.82567654192037" lon="-9.324749447709168"><ele>164.0</ele><time>2026-04-25T15:33:51Z</time></trkpt><trkpt lat="38.82576945103632" lon="-9.324759711183086"><ele>164.0</ele><time>2026-04-25T15:33:52Z</time></trkpt><trkpt lat="38.82584472335488" lon="-9.324777557314171"><ele>164.0</ele><time>2026-04-25T15:33:53Z</time></trkpt><trkpt lat="38.825916169756766" lon="-9.324801471442047"><ele>164.0</ele><time>2026-04-25T15:33:54Z</time></trkpt><trkpt lat="38.825997892945495" lon="-9.324804955048789"><ele>164.0</ele><time>2026-04-25T15:33:55Z</time></trkpt><trkpt lat="38.82609576985535" lon="-9.324820682179519"><ele>164.0</ele><time>2026-04-25T15:33:56Z</time></trkpt><trkpt lat="38.8261881849533" lon="-9.324848872391721"><ele>164.0</ele><time>2026-04-25T15:33:57Z</time></trkpt><trkpt lat="38.82628917087804" lon="-9.324853829622416"><ele>164.0</ele><time>2026-04-25T15:33:58Z</time></trkpt><trkpt lat="38.82638322277754" lon="-9.324856512116563"><ele>164.0</ele><time>2026-04-25T15:33:59Z</time></trkpt><trkpt lat="38.82647931751717" lon="-9.324852554887931"><ele>164.0</ele><time>2026-04-25T15:34:00Z</time></trkpt><trkpt lat="38.82656698504077" lon="-9.324833324775991"><ele>164.0</ele><time>2026-04-25T15:34:01Z</time></trkpt><trkpt lat="38.82664295425035" lon="-9.324751120593078"><ele>164.0</ele><time>2026-04-25T15:34:02Z</time></trkpt><trkpt lat="38.82674765572445" lon="-9.324677283679215"><ele>164.0</ele><time>2026-04-25T15:34:03Z</time></trkpt><trkpt lat="38.826899458661075" lon="-9.324578760759241"><ele>165.0</ele><time>2026-04-25T15:34:04Z</time></trkpt><trkpt lat="38.827074780964736" lon="-9.324464907233484"><ele>166.0</ele><time>2026-04-25T15:34:05Z</time></trkpt><trkpt lat="38.82725880547932" lon="-9.32434527240644"><ele>167.0</ele><time>2026-04-25T15:34:06Z</time></trkpt><trkpt lat="38.82746586591215" lon="-9.324209265991144"><ele>166.0</ele><time>2026-04-25T15:34:07Z</time></trkpt><trkpt lat="38.82767598408395" lon="-9.324063107256217"><ele>165.0</ele><time>2026-04-25T15:34:08Z</time></trkpt><trkpt lat="38.82789613042296" lon="-9.32389445268994"><ele>165.0</ele><time>2026-04-25T15:34:09Z</time></trkpt><trkpt lat="38.828110523198305" lon="-9.32372421401105"><ele>165.0</ele><time>2026-04-25T15:34:10Z</time></trkpt><trkpt lat="38.8282943306535" lon="-9.323573406131857"><ele>165.0</ele><time>2026-04-25T15:34:11Z</time></trkpt><trkpt lat="38.828474801028484" lon="-9.323425093406863"><ele>165.0</ele><time>2026-04-25T15:34:12Z</time></trkpt><trkpt lat="38.82865661129915" lon="-9.323276245425442"><ele>165.0</ele><time>2026-04-25T15:34:13Z</time></trkpt><trkpt lat="38.828834140088944" lon="-9.323154550838712"><ele>165.0</ele><time>2026-04-25T15:34:14Z</time></trkpt><trkpt lat="38.82899109156764" lon="-9.323037777639374"><ele>165.0</ele><time>2026-04-25T15:34:15Z</time></trkpt><trkpt lat="38.829145014266444" lon="-9.322914400526335"><ele>165.0</ele><time>2026-04-25T15:34:16Z</time></trkpt><trkpt lat="38.82929673519502" lon="-9.322791173962548"><ele>161.66666666666666</ele><time>2026-04-25T15:34:17Z</time></trkpt><trkpt lat="38.82944952447676" lon="-9.322673283651557"><ele>158.33333333333331</ele><time>2026-04-25T15:34:18Z</time></trkpt><trkpt lat="38.82959651088515" lon="-9.322565388978107"><ele>155.0</ele><time>2026-04-25T15:34:19Z</time></trkpt><trkpt lat="38.82974761187464" lon="-9.322470722688054"><ele>155.0</ele><time>2026-04-25T15:34:20Z</time></trkpt><trkpt lat="38.82989287460996" lon="-9.322379237654173"><ele>155.0</ele><time>2026-04-25T15:34:21Z</time></trkpt><trkpt lat="38.830030450179244" lon="-9.322294568733462"><ele>155.0</ele><time>2026-04-25T15:34:22Z</time></trkpt><trkpt lat="38.83017037676827" lon="-9.322211586899172"><ele>156.25</ele><time>2026-04-25T15:34:23Z</time></trkpt><trkpt lat="38.83029304787345" lon="-9.322127426420273"><ele>157.5</ele><time>2026-04-25T15:34:24Z</time></trkpt><trkpt lat="38.83040787656408" lon="-9.322065689665196"><ele>158.75</ele><time>2026-04-25T15:34:25Z</time></trkpt><trkpt lat="38.830508332250375" lon="-9.322021766899143"><ele>160.0</ele><time>2026-04-25T15:34:26Z</time></trkpt><trkpt lat="38.83061631519304" lon="-9.322028572562719"><ele>160.0</ele><time>2026-04-25T15:34:27Z</time></trkpt><trkpt lat="38.83073842623993" lon="-9.322035500676902"><ele>160.0</ele><time>2026-04-25T15:34:28Z</time></trkpt><trkpt lat="38.83086961765284" lon="-9.32204035011751"><ele>160.0</ele><time>2026-04-25T15:34:29Z</time></trkpt><trkpt lat="38.83099807234299" lon="-9.322070221801647"><ele>160.0</ele><time>2026-04-25T15:34:30Z</time></trkpt><trkpt lat="38.83112517930136" lon="-9.322094211019985"><ele>157.75</ele><time>2026-04-25T15:34:31Z</time></trkpt><trkpt lat="38.83125014268643" lon="-9.322111712635285"><ele>155.5</ele><time>2026-04-25T15:34:32Z</time></trkpt><trkpt lat="38.83137358527386" lon="-9.322144908203107"><ele>153.25</ele><time>2026-04-25T15:34:33Z</time></trkpt><trkpt lat="38.83147504182366" lon="-9.322236379365538"><ele>151.0</ele><time>2026-04-25T15:34:34Z</time></trkpt><trkpt lat="38.83159837723813" lon="-9.322310585665484"><ele>151.0</ele><time>2026-04-25T15:34:35Z</time></trkpt><trkpt lat="38.831717588247464" lon="-9.322408242641885"><ele>151.0</ele><time>2026-04-25T15:34:36Z</time></trkpt><trkpt lat="38.83182835113486" lon="-9.322494988214343"><ele>151.0</ele><time>2026-04-25T15:34:37Z</time></trkpt><trkpt lat="38.831919737687485" lon="-9.322575217444667"><ele>151.0</ele><time>2026-04-25T15:34:38Z</time></trkpt><trkpt lat="38.83197460262618" lon="-9.322691914011711"><ele>151.0</ele><time>2026-04-25T15:34:39Z</time></trkpt><trkpt lat="38.83201764424068" lon="-9.322820255242553"><ele>151.0</ele><time>2026-04-25T15:34:40Z</time></trkpt><trkpt lat="38.83204542582471" lon="-9.322972111853284"><ele>151.0</ele><time>2026-04-25T15:34:41Z</time></trkpt><trkpt lat="38.83207580826882" lon="-9.323153376244411"><ele>151.0</ele><time>2026-04-25T15:34:42Z</time></trkpt><trkpt lat="38.83212069585446" lon="-9.323341872006884"><ele>150.33333333333334</ele><time>2026-04-25T15:34:43Z</time></trkpt><trkpt lat="38.83214125555486" lon="-9.32354227061317"><ele>149.66666666666666</ele><time>2026-04-25T15:34:44Z</time></trkpt><trkpt lat="38.8321782925384" lon="-9.323754153248965"><ele>149.0</ele><time>2026-04-25T15:34:45Z</time></trkpt><trkpt lat="38.83221482976587" lon="-9.32396903279044"><ele>147.66666666666666</ele><time>2026-04-25T15:34:46Z</time></trkpt><trkpt lat="38.832244091964114" lon="-9.324160835070149"><ele>146.33333333333334</ele><time>2026-04-25T15:34:47Z</time></trkpt><trkpt lat="38.832272646776275" lon="-9.324346017975431"><ele>145.0</ele><time>2026-04-25T15:34:48Z</time></trkpt><trkpt lat="38.832287948814646" lon="-9.324550728349916"><ele>144.0</ele><time>2026-04-25T15:34:49Z</time></trkpt><trkpt lat="38.83228505104516" lon="-9.32476553788963"><ele>143.0</ele><time>2026-04-25T15:34:50Z</time></trkpt><trkpt lat="38.832284247742294" lon="-9.32498705725352"><ele>142.0</ele><time>2026-04-25T15:34:51Z</time></trkpt><trkpt lat="38.832287909797195" lon="-9.325193595885771"><ele>142.0</ele><time>2026-04-25T15:34:52Z</time></trkpt><trkpt lat="38.832292906653144" lon="-9.325378045279196"><ele>142.0</ele><time>2026-04-25T15:34:53Z</time></trkpt><trkpt lat="38.832302043075785" lon="-9.325552543945804"><ele>142.0</ele><time>2026-04-25T15:34:54Z</time></trkpt><trkpt lat="38.83231621338629" lon="-9.325703505719568"><ele>142.0</ele><time>2026-04-25T15:34:55Z</time></trkpt><trkpt lat="38.832352405222125" lon="-9.3258411198998"><ele>141.5</ele><time>2026-04-25T15:34:56Z</time></trkpt><trkpt lat="38.832416657081225" lon="-9.325946127998415"><ele>141.0</ele><time>2026-04-25T15:34:57Z</time></trkpt><trkpt lat="38.83253185883654" lon="-9.326021265307611"><ele>140.5</ele><time>2026-04-25T15:34:58Z</time></trkpt><trkpt lat="38.83266610745336" lon="-9.326106070464121"><ele>140.0</ele><time>2026-04-25T15:34:59Z</time></trkpt><trkpt lat="38.832823481728674" lon="-9.326203542698599"><ele>139.66666666666666</ele><time>2026-04-25T15:35:00Z</time></trkpt><trkpt lat="38.83300349633168" lon="-9.326313804571765"><ele>139.33333333333334</ele><time>2026-04-25T15:35:01Z</time></trkpt><trkpt lat="38.83320551977284" lon="-9.326438000964831"><ele>139.0</ele><time>2026-04-25T15:35:02Z</time></trkpt><trkpt lat="38.83341708881086" lon="-9.326564227718697"><ele>138.0</ele><time>2026-04-25T15:35:03Z</time></trkpt><trkpt lat="38.833610360357575" lon="-9.326698703999599"><ele>137.0</ele><time>2026-04-25T15:35:04Z</time></trkpt><trkpt lat="38.833786051626994" lon="-9.326795634873983"><ele>136.0</ele><time>2026-04-25T15:35:05Z</time></trkpt><trkpt lat="38.83395066224313" lon="-9.326891056506534"><ele>136.0</ele><time>2026-04-25T15:35:06Z</time></trkpt><trkpt lat="38.83411758547402" lon="-9.326941070333124"><ele>136.0</ele><time>2026-04-25T15:35:07Z</time></trkpt><trkpt lat="38.83428208296775" lon="-9.326962227720147"><ele>136.0</ele><time>2026-04-25T15:35:08Z</time></trkpt><trkpt lat="38.834457861626284" lon="-9.326965100572055"><ele>136.66666666666669</ele><time>2026-04-25T15:35:09Z</time></trkpt><trkpt lat="38.83463382205053" lon="-9.326967261359785"><ele>137.33333333333334</ele><time>2026-04-25T15:35:10Z</time></trkpt><trkpt lat="38.834811927434345" lon="-9.326980718830193"><ele>138.0</ele><time>2026-04-25T15:35:11Z</time></trkpt><trkpt lat="38.834991671248694" lon="-9.326976585508184"><ele>138.33333333333334</ele><time>2026-04-25T15:35:12Z</time></trkpt><trkpt lat="38.835167135581784" lon="-9.326980091596788"><ele>138.66666666666669</ele><time>2026-04-25T15:35:13Z</time></trkpt><trkpt lat="38.83531552655416" lon="-9.326988269720806"><ele>139.0</ele><time>2026-04-25T15:35:14Z</time></trkpt><trkpt lat="38.8354584480085" lon="-9.327016499355517"><ele>139.0</ele><time>2026-04-25T15:35:15Z</time></trkpt><trkpt lat="38.835588158772964" lon="-9.327102191949104"><ele>139.0</ele><time>2026-04-25T15:35:16Z</time></trkpt><trkpt lat="38.835731753698745" lon="-9.327188995369776"><ele>139.0</ele><time>2026-04-25T15:35:17Z</time></trkpt><trkpt lat="38.835860058458216" lon="-9.327306958910622"><ele>140.33333333333334</ele><time>2026-04-25T15:35:18Z</time></trkpt><trkpt lat="38.83599791331629" lon="-9.327421521314488"><ele>141.66666666666666</ele><time>2026-04-25T15:35:19Z</time></trkpt><trkpt lat="38.83613884954518" lon="-9.327542494874056"><ele>143.0</ele><time>2026-04-25T15:35:20Z</time></trkpt><trkpt lat="38.83628154116962" lon="-9.327655495559013"><ele>143.0</ele><time>2026-04-25T15:35:21Z</time></trkpt><trkpt lat="38.83643578106583" lon="-9.32771490288356"><ele>143.0</ele><time>2026-04-25T15:35:22Z</time></trkpt><trkpt lat="38.83659889841064" lon="-9.327756271121572"><ele>143.0</ele><time>2026-04-25T15:35:23Z</time></trkpt><trkpt lat="38.836769025617166" lon="-9.327794711347927"><ele>143.0</ele><time>2026-04-25T15:35:24Z</time></trkpt><trkpt lat="38.83694318948817" lon="-9.327849238790831"><ele>143.0</ele><time>2026-04-25T15:35:25Z</time></trkpt><trkpt lat="38.837121860507175" lon="-9.327880635963446"><ele>143.0</ele><time>2026-04-25T15:35:26Z</time></trkpt><trkpt lat="38.837298837315515" lon="-9.327919310651486"><ele>143.0</ele><time>2026-04-25T15:35:27Z</time></trkpt><trkpt lat="38.83748515671903" lon="-9.327964741849247"><ele>143.0</ele><time>2026-04-25T15:35:28Z</time></trkpt><trkpt lat="38.83767627291515" lon="-9.328010373832631"><ele>143.0</ele><time>2026-04-25T15:35:29Z</time></trkpt><trkpt lat="38.83786939179845" lon="-9.328041018260343"><ele>142.66666666666666</ele><time>2026-04-25T15:35:30Z</time></trkpt><trkpt lat="38.83806170056986" lon="-9.328035194020455"><ele>142.33333333333334</ele><time>2026-04-25T15:35:31Z</time></trkpt><trkpt lat="38.838249820637024" lon="-9.32803039952364"><ele>142.0</ele><time>2026-04-25T15:35:32Z</time></trkpt><trkpt lat="38.83844456448189" lon="-9.328039907849984"><ele>142.33333333333334</ele><time>2026-04-25T15:35:33Z</time></trkpt><trkpt lat="38.838639009980504" lon="-9.328021082803419"><ele>142.66666666666666</ele><time>2026-04-25T15:35:34Z</time></trkpt><trkpt lat="38.83882710655717" lon="-9.328006863262825"><ele>143.0</ele><time>2026-04-25T15:35:35Z</time></trkpt><trkpt lat="38.838995421335504" lon="-9.327998168087396"><ele>143.0</ele><time>2026-04-25T15:35:36Z</time></trkpt><trkpt lat="38.83913920043738" lon="-9.327993836179806"><ele>143.0</ele><time>2026-04-25T15:35:37Z</time></trkpt><trkpt lat="38.83926806448803" lon="-9.328010175198571"><ele>143.0</ele><time>2026-04-25T15:35:38Z</time></trkpt><trkpt lat="38.839382974244224" lon="-9.328073901096849"><ele>143.0</ele><time>2026-04-25T15:35:39Z</time></trkpt><trkpt lat="38.83950037932846" lon="-9.328157883402543"><ele>141.33333333333331</ele><time>2026-04-25T15:35:40Z</time></trkpt><trkpt lat="38.83963634831209" lon="-9.328265907747411"><ele>139.66666666666666</ele><time>2026-04-25T15:35:41Z</time></trkpt><trkpt lat="38.83978482445818" lon="-9.328373307758108"><ele>138.0</ele><time>2026-04-25T15:35:42Z</time></trkpt><trkpt lat="38.83992889422072" lon="-9.328505873486431"><ele>138.0</ele><time>2026-04-25T15:35:43Z</time></trkpt><trkpt lat="38.84009330117967" lon="-9.328653170331986"><ele>138.0</ele><time>2026-04-25T15:35:44Z</time></trkpt><trkpt lat="38.84027662319326" lon="-9.328818382426974"><ele>138.0</ele><time>2026-04-25T15:35:45Z</time></trkpt><trkpt lat="38.84044073703128" lon="-9.328959059796103"><ele>138.33333333333334</ele><time>2026-04-25T15:35:46Z</time></trkpt><trkpt lat="38.84059310799378" lon="-9.329077251546513"><ele>138.66666666666669</ele><time>2026-04-25T15:35:47Z</time></trkpt><trkpt lat="38.84073313434096" lon="-9.329169174676029"><ele>139.0</ele><time>2026-04-25T15:35:48Z</time></trkpt><trkpt lat="38.84085777513325" lon="-9.329238835192134"><ele>139.0</ele><time>2026-04-25T15:35:49Z</time></trkpt><trkpt lat="38.840950492217964" lon="-9.329279126320621"><ele>139.0</ele><time>2026-04-25T15:35:50Z</time></trkpt><trkpt lat="38.84101098613177" lon="-9.329306821555283"><ele>139.0</ele><time>2026-04-25T15:35:51Z</time></trkpt><trkpt lat="38.84102320864823" lon="-9.329085326618006"><ele>139.0</ele><time>2026-04-25T15:35:54Z</time></trkpt><trkpt lat="38.84106785052856" lon="-9.328945726174176"><ele>138.33333333333334</ele><time>2026-04-25T15:35:55Z</time></trkpt><trkpt lat="38.841129756360246" lon="-9.328760622826724"><ele>137.66666666666666</ele><time>2026-04-25T15:35:56Z</time></trkpt><trkpt lat="38.84119796610298" lon="-9.328556537200418"><ele>137.0</ele><time>2026-04-25T15:35:57Z</time></trkpt><trkpt lat="38.841263238191914" lon="-9.328359380090102"><ele>137.0</ele><time>2026-04-25T15:35:58Z</time></trkpt><trkpt lat="38.841341305125546" lon="-9.328123575567556"><ele>137.0</ele><time>2026-04-25T15:35:59Z</time></trkpt><trkpt lat="38.84141458663557" lon="-9.327902225695375"><ele>137.0</ele><time>2026-04-25T15:36:00Z</time></trkpt><trkpt lat="38.84147625643314" lon="-9.327714801267494"><ele>137.0</ele><time>2026-04-25T15:36:01Z</time></trkpt><trkpt lat="38.841529259598964" lon="-9.327551000851615"><ele>137.0</ele><time>2026-04-25T15:36:02Z</time></trkpt><trkpt lat="38.84157668383992" lon="-9.327407241336253"><ele>137.0</ele><time>2026-04-25T15:36:03Z</time></trkpt><trkpt lat="38.84162600083929" lon="-9.327308652893185"><ele>137.0</ele><time>2026-04-25T15:36:04Z</time></trkpt><trkpt lat="38.841639548855994" lon="-9.327217024429675"><ele>137.0</ele><time>2026-04-25T15:36:05Z</time></trkpt><trkpt lat="38.84166443134577" lon="-9.327142033941934"><ele>137.33333333333331</ele><time>2026-04-25T15:36:06Z</time></trkpt><trkpt lat="38.841832644633286" lon="-9.327191597357302"><ele>137.66666666666666</ele><time>2026-04-25T15:36:07Z</time></trkpt><trkpt lat="38.841966144796814" lon="-9.327132792825441"><ele>138.0</ele><time>2026-04-25T15:36:08Z</time></trkpt><trkpt lat="38.842105503279065" lon="-9.327123484239209"><ele>138.0</ele><time>2026-04-25T15:36:09Z</time></trkpt><trkpt lat="38.84227432913113" lon="-9.327124211767629"><ele>138.0</ele><time>2026-04-25T15:36:10Z</time></trkpt><trkpt lat="38.84246380529311" lon="-9.327161375531688"><ele>138.0</ele><time>2026-04-25T15:36:11Z</time></trkpt><trkpt lat="38.842657336172884" lon="-9.327191627590281"><ele>138.33333333333334</ele><time>2026-04-25T15:36:12Z</time></trkpt><trkpt lat="38.842847378087924" lon="-9.32721534820847"><ele>138.66666666666669</ele><time>2026-04-25T15:36:13Z</time></trkpt><trkpt lat="38.843013131719914" lon="-9.327235981839783"><ele>139.0</ele><time>2026-04-25T15:36:14Z</time></trkpt><trkpt lat="38.8431848931659" lon="-9.32726325564422"><ele>139.0</ele><time>2026-04-25T15:36:15Z</time></trkpt><trkpt lat="38.843348043905785" lon="-9.327285352801917"><ele>139.0</ele><time>2026-04-25T15:36:16Z</time></trkpt><trkpt lat="38.84350576987625" lon="-9.327303888511075"><ele>139.0</ele><time>2026-04-25T15:36:17Z</time></trkpt><trkpt lat="38.84365473797074" lon="-9.327322510190365"><ele>139.0</ele><time>2026-04-25T15:36:18Z</time></trkpt><trkpt lat="38.84380824926266" lon="-9.327325113592337"><ele>139.0</ele><time>2026-04-25T15:36:19Z</time></trkpt><trkpt lat="38.8439677719562" lon="-9.32725427578671"><ele>139.0</ele><time>2026-04-25T15:36:20Z</time></trkpt><trkpt lat="38.84415896759623" lon="-9.327170902064093"><ele>137.33333333333334</ele><time>2026-04-25T15:36:21Z</time></trkpt><trkpt lat="38.84435692047884" lon="-9.327087987218311"><ele>135.66666666666666</ele><time>2026-04-25T15:36:22Z</time></trkpt><trkpt lat="38.84453402268983" lon="-9.327041470149501"><ele>134.0</ele><time>2026-04-25T15:36:23Z</time></trkpt><trkpt lat="38.84471193630365" lon="-9.326987984988012"><ele>134.0</ele><time>2026-04-25T15:36:24Z</time></trkpt><trkpt lat="38.84489428879866" lon="-9.326966499147995"><ele>134.0</ele><time>2026-04-25T15:36:25Z</time></trkpt><trkpt lat="38.84509745002253" lon="-9.326976579493746"><ele>134.0</ele><time>2026-04-25T15:36:26Z</time></trkpt><trkpt lat="38.845307831612985" lon="-9.326990100593543"><ele>134.33333333333331</ele><time>2026-04-25T15:36:27Z</time></trkpt><trkpt lat="38.8455233634102" lon="-9.326983004328747"><ele>134.66666666666666</ele><time>2026-04-25T15:36:28Z</time></trkpt><trkpt lat="38.84573353737706" lon="-9.326955561330125"><ele>135.0</ele><time>2026-04-25T15:36:29Z</time></trkpt><trkpt lat="38.84592017437366" lon="-9.326919728260906"><ele>134.66666666666666</ele><time>2026-04-25T15:36:30Z</time></trkpt><trkpt lat="38.84608968877733" lon="-9.326883328401623"><ele>134.33333333333331</ele><time>2026-04-25T15:36:31Z</time></trkpt><trkpt lat="38.846237059690274" lon="-9.326847399714305"><ele>134.0</ele><time>2026-04-25T15:36:32Z</time></trkpt><trkpt lat="38.84639215186859" lon="-9.326839431359101"><ele>134.0</ele><time>2026-04-25T15:36:33Z</time></trkpt><trkpt lat="38.84654617672611" lon="-9.326906602225977"><ele>134.0</ele><time>2026-04-25T15:36:34Z</time></trkpt><trkpt lat="38.84672286913717" lon="-9.326945941817021"><ele>134.0</ele><time>2026-04-25T15:36:35Z</time></trkpt><trkpt lat="38.84688010231377" lon="-9.327011592178954"><ele>133.66666666666666</ele><time>2026-04-25T15:36:36Z</time></trkpt><trkpt lat="38.84702241270174" lon="-9.327064852457761"><ele>133.33333333333334</ele><time>2026-04-25T15:36:37Z</time></trkpt><trkpt lat="38.84717516913915" lon="-9.327137659794634"><ele>133.0</ele><time>2026-04-25T15:36:38Z</time></trkpt><trkpt lat="38.8472995519805" lon="-9.327225257375172"><ele>133.25</ele><time>2026-04-25T15:36:39Z</time></trkpt><trkpt lat="38.84740737563356" lon="-9.327304423391544"><ele>133.5</ele><time>2026-04-25T15:36:40Z</time></trkpt><trkpt lat="38.84750271475173" lon="-9.327356180833023"><ele>133.75</ele><time>2026-04-25T15:36:41Z</time></trkpt><trkpt lat="38.84763742250992" lon="-9.327326828482295"><ele>134.0</ele><time>2026-04-25T15:36:42Z</time></trkpt><trkpt lat="38.84780866767653" lon="-9.327302795754662"><ele>132.66666666666666</ele><time>2026-04-25T15:36:43Z</time></trkpt><trkpt lat="38.84799334776355" lon="-9.327272246109882"><ele>131.33333333333334</ele><time>2026-04-25T15:36:44Z</time></trkpt><trkpt lat="38.84815064427168" lon="-9.327245155512026"><ele>130.0</ele><time>2026-04-25T15:36:45Z</time></trkpt><trkpt lat="38.84831406460424" lon="-9.327213833189788"><ele>128.5</ele><time>2026-04-25T15:36:46Z</time></trkpt><trkpt lat="38.84846633478405" lon="-9.327197582344361"><ele>127.0</ele><time>2026-04-25T15:36:47Z</time></trkpt><trkpt lat="38.8486012252807" lon="-9.327172854485218"><ele>125.5</ele><time>2026-04-25T15:36:48Z</time></trkpt><trkpt lat="38.84872155418902" lon="-9.327207442142434"><ele>124.0</ele><time>2026-04-25T15:36:49Z</time></trkpt><trkpt lat="38.8488426263986" lon="-9.327224008480794"><ele>124.0</ele><time>2026-04-25T15:36:50Z</time></trkpt><trkpt lat="38.84895825850186" lon="-9.327225840726998"><ele>124.0</ele><time>2026-04-25T15:36:51Z</time></trkpt><trkpt lat="38.84907323573386" lon="-9.327224035455114"><ele>124.0</ele><time>2026-04-25T15:36:52Z</time></trkpt><trkpt lat="38.84921653159717" lon="-9.327148436184796"><ele>124.0</ele><time>2026-04-25T15:36:53Z</time></trkpt><trkpt lat="38.84940321934974" lon="-9.327104513168592"><ele>124.33333333333334</ele><time>2026-04-25T15:36:54Z</time></trkpt><trkpt lat="38.84960759025044" lon="-9.327034641451498"><ele>124.66666666666666</ele><time>2026-04-25T15:36:55Z</time></trkpt><trkpt lat="38.84981873066894" lon="-9.326971760460921"><ele>125.0</ele><time>2026-04-25T15:36:56Z</time></trkpt><trkpt lat="38.850035686348136" lon="-9.326913066094846"><ele>127.5</ele><time>2026-04-25T15:36:57Z</time></trkpt><trkpt lat="38.85026308627737" lon="-9.326845841177947"><ele>130.0</ele><time>2026-04-25T15:36:58Z</time></trkpt><trkpt lat="38.85049212267807" lon="-9.32677993148542"><ele>130.0</ele><time>2026-04-25T15:36:59Z</time></trkpt><trkpt lat="38.85072499816171" lon="-9.326723461150262"><ele>130.0</ele><time>2026-04-25T15:37:00Z</time></trkpt><trkpt lat="38.85093565684527" lon="-9.32667403357541"><ele>131.66666666666669</ele><time>2026-04-25T15:37:01Z</time></trkpt><trkpt lat="38.851115764472276" lon="-9.32664975012015"><ele>133.33333333333334</ele><time>2026-04-25T15:37:02Z</time></trkpt><trkpt lat="38.85129533084975" lon="-9.326641066279178"><ele>135.0</ele><time>2026-04-25T15:37:03Z</time></trkpt><trkpt lat="38.85147983284315" lon="-9.326628216586222"><ele>135.0</ele><time>2026-04-25T15:37:04Z</time></trkpt><trkpt lat="38.85165126014247" lon="-9.326629429794089"><ele>135.0</ele><time>2026-04-25T15:37:05Z</time></trkpt><trkpt lat="38.85180079118424" lon="-9.326626142908594"><ele>135.0</ele><time>2026-04-25T15:37:06Z</time></trkpt><trkpt lat="38.85194016788175" lon="-9.326627870445714"><ele>135.8</ele><time>2026-04-25T15:37:07Z</time></trkpt><trkpt lat="38.85206523812941" lon="-9.326630837552878"><ele>136.6</ele><time>2026-04-25T15:37:08Z</time></trkpt><trkpt lat="38.852172919835716" lon="-9.326638127646426"><ele>137.4</ele><time>2026-04-25T15:37:09Z</time></trkpt><trkpt lat="38.85227459809916" lon="-9.32665297920445"><ele>138.2</ele><time>2026-04-25T15:37:10Z</time></trkpt><trkpt lat="38.85236459418036" lon="-9.326655340578464"><ele>139.0</ele><time>2026-04-25T15:37:11Z</time></trkpt><trkpt lat="38.85244337518156" lon="-9.326625316305185"><ele>139.0</ele><time>2026-04-25T15:37:12Z</time></trkpt><trkpt lat="38.852500284312875" lon="-9.326554327035002"><ele>139.0</ele><time>2026-04-25T15:37:13Z</time></trkpt><trkpt lat="38.852540162400445" lon="-9.326488162158045"><ele>139.0</ele><time>2026-04-25T15:37:14Z</time></trkpt><trkpt lat="38.85262455927263" lon="-9.326423537336888"><ele>139.0</ele><time>2026-04-25T15:37:16Z</time></trkpt><trkpt lat="38.85268164413915" lon="-9.326384128474022"><ele>139.0</ele><time>2026-04-25T15:37:20Z</time></trkpt><trkpt lat="38.852741234954394" lon="-9.326418989607095"><ele>139.0</ele><time>2026-04-25T15:37:51Z</time></trkpt><trkpt lat="38.852671533159516" lon="-9.326387921724926"><ele>139.0</ele><time>2026-04-25T15:39:15Z</time></trkpt><trkpt lat="38.85273473929798" lon="-9.326388758357341"><ele>139.0</ele><time>2026-04-25T15:39:23Z</time></trkpt><trkpt lat="38.852797045512105" lon="-9.32642903776243"><ele>139.0</ele><time>2026-04-25T15:42:37.999Z</time></trkpt><trkpt lat="38.85283932090368" lon="-9.326531843584442"><ele>139.0</ele><time>2026-04-25T15:42:40.999Z</time></trkpt><trkpt lat="38.85284437403189" lon="-9.326613609400143"><ele>139.0</ele><time>2026-04-25T15:42:42.999Z</time></trkpt><trkpt lat="38.85276270446167" lon="-9.326682022388324"><ele>139.0</ele><time>2026-04-25T15:42:52.999Z</time></trkpt><trkpt lat="38.85269919550717" lon="-9.326682130996483"><ele>139.0</ele><time>2026-04-25T15:42:53.999Z</time></trkpt><trkpt lat="38.85259245936667" lon="-9.326677219743667"><ele>139.0</ele><time>2026-04-25T15:42:54.999Z</time></trkpt><trkpt lat="38.85244272922872" lon="-9.326685038952537"><ele>139.0</ele><time>2026-04-25T15:42:55.999Z</time></trkpt><trkpt lat="38.852251239972766" lon="-9.32668102188353"><ele>139.0</ele><time>2026-04-25T15:42:56.999Z</time></trkpt><trkpt lat="38.85206785208139" lon="-9.326675956454968"><ele>139.0</ele><time>2026-04-25T15:42:57.999Z</time></trkpt><trkpt lat="38.85191615909985" lon="-9.326703737611819"><ele>139.0</ele><time>2026-04-25T15:42:59Z</time></trkpt><trkpt lat="38.85177152599208" lon="-9.326684599755586"><ele>139.0</ele><time>2026-04-25T15:43:00Z</time></trkpt><trkpt lat="38.85159907728691" lon="-9.32668569231853"><ele>138.0</ele><time>2026-04-25T15:43:01Z</time></trkpt><trkpt lat="38.85144728557426" lon="-9.326694607388859"><ele>137.0</ele><time>2026-04-25T15:43:02Z</time></trkpt><trkpt lat="38.851306145288696" lon="-9.326696652621047"><ele>136.0</ele><time>2026-04-25T15:43:03Z</time></trkpt><trkpt lat="38.8511635967175" lon="-9.326704403130273"><ele>135.0</ele><time>2026-04-25T15:43:04Z</time></trkpt><trkpt lat="38.85102669758474" lon="-9.326706287323221"><ele>133.75</ele><time>2026-04-25T15:43:05Z</time></trkpt><trkpt lat="38.85089576514343" lon="-9.326724374359733"><ele>132.5</ele><time>2026-04-25T15:43:06Z</time></trkpt><trkpt lat="38.850774375260066" lon="-9.326754562918477"><ele>131.25</ele><time>2026-04-25T15:43:07Z</time></trkpt><trkpt lat="38.85066435121843" lon="-9.326794280215601"><ele>130.0</ele><time>2026-04-25T15:43:08Z</time></trkpt><trkpt lat="38.85057168914742" lon="-9.326817381122167"><ele>130.0</ele><time>2026-04-25T15:43:09Z</time></trkpt><trkpt lat="38.850481028543214" lon="-9.326839090145809"><ele>130.0</ele><time>2026-04-25T15:43:10Z</time></trkpt><trkpt lat="38.850395883946426" lon="-9.326859297437965"><ele>130.0</ele><time>2026-04-25T15:43:11Z</time></trkpt><trkpt lat="38.850294262921025" lon="-9.32688341503953"><ele>130.0</ele><time>2026-04-25T15:43:12Z</time></trkpt><trkpt lat="38.850170088133495" lon="-9.326917056481546"><ele>130.0</ele><time>2026-04-25T15:43:13Z</time></trkpt><trkpt lat="38.850036853910716" lon="-9.326952585381308"><ele>128.75</ele><time>2026-04-25T15:43:14Z</time></trkpt><trkpt lat="38.84988627216477" lon="-9.326992925228403"><ele>127.5</ele><time>2026-04-25T15:43:15Z</time></trkpt><trkpt lat="38.84975936317922" lon="-9.327027785559258"><ele>126.25</ele><time>2026-04-25T15:43:16Z</time></trkpt><trkpt lat="38.8496266579508" lon="-9.32706407205823"><ele>125.0</ele><time>2026-04-25T15:43:17Z</time></trkpt><trkpt lat="38.8494903633009" lon="-9.327101824458785"><ele>125.0</ele><time>2026-04-25T15:43:18Z</time></trkpt><trkpt lat="38.8493680567617" lon="-9.327141816326302"><ele>125.0</ele><time>2026-04-25T15:43:19Z</time></trkpt><trkpt lat="38.84925280445838" lon="-9.32718034345171"><ele>125.0</ele><time>2026-04-25T15:43:20Z</time></trkpt><trkpt lat="38.84915027796806" lon="-9.327223080972438"><ele>125.0</ele><time>2026-04-25T15:43:21Z</time></trkpt><trkpt lat="38.84906574825846" lon="-9.327268503473249"><ele>125.0</ele><time>2026-04-25T15:43:22Z</time></trkpt><trkpt lat="38.84898692412381" lon="-9.327322194846825"><ele>125.0</ele><time>2026-04-25T15:43:23Z</time></trkpt><trkpt lat="38.8489160896009" lon="-9.32738869445632"><ele>125.0</ele><time>2026-04-25T15:43:24Z</time></trkpt><trkpt lat="38.84886043575937" lon="-9.32744373212705"><ele>125.0</ele><time>2026-04-25T15:43:25Z</time></trkpt><trkpt lat="38.84875237505885" lon="-9.327326659542951"><ele>125.0</ele><time>2026-04-25T15:43:26Z</time></trkpt><trkpt lat="38.84864594256145" lon="-9.327265820035688"><ele>125.0</ele><time>2026-04-25T15:43:27Z</time></trkpt><trkpt lat="38.84853560898673" lon="-9.327207887102686"><ele>124.75</ele><time>2026-04-25T15:43:28Z</time></trkpt><trkpt lat="38.84847040906961" lon="-9.32721489650917"><ele>124.5</ele><time>2026-04-25T15:43:29Z</time></trkpt><trkpt lat="38.848378651738585" lon="-9.327242851461813"><ele>124.25</ele><time>2026-04-25T15:43:30Z</time></trkpt><trkpt lat="38.848233525416454" lon="-9.327273417798736"><ele>124.0</ele><time>2026-04-25T15:43:31Z</time></trkpt><trkpt lat="38.84805624221287" lon="-9.327304532625059"><ele>126.0</ele><time>2026-04-25T15:43:32Z</time></trkpt><trkpt lat="38.8478903787159" lon="-9.327332773661826"><ele>128.0</ele><time>2026-04-25T15:43:33Z</time></trkpt><trkpt lat="38.84772819548255" lon="-9.327358363044828"><ele>130.0</ele><time>2026-04-25T15:43:34Z</time></trkpt><trkpt lat="38.84759003734773" lon="-9.327362903554526"><ele>130.75</ele><time>2026-04-25T15:43:35Z</time></trkpt><trkpt lat="38.84745888825048" lon="-9.327383356562335"><ele>131.5</ele><time>2026-04-25T15:43:36Z</time></trkpt><trkpt lat="38.84734998740327" lon="-9.327402832451316"><ele>132.25</ele><time>2026-04-25T15:43:37Z</time></trkpt><trkpt lat="38.84725196087117" lon="-9.327306494300016"><ele>133.0</ele><time>2026-04-25T15:43:38Z</time></trkpt><trkpt lat="38.8471070895611" lon="-9.32720645515419"><ele>133.0</ele><time>2026-04-25T15:43:39Z</time></trkpt><trkpt lat="38.846941277421585" lon="-9.32714698623454"><ele>133.0</ele><time>2026-04-25T15:43:40Z</time></trkpt><trkpt lat="38.846761845167926" lon="-9.327049387619951"><ele>133.0</ele><time>2026-04-25T15:43:41Z</time></trkpt><trkpt lat="38.84657651121208" lon="-9.326973326257582"><ele>133.33333333333334</ele><time>2026-04-25T15:43:42Z</time></trkpt><trkpt lat="38.846389025651305" lon="-9.326906298624907"><ele>133.66666666666666</ele><time>2026-04-25T15:43:43Z</time></trkpt><trkpt lat="38.84621363920382" lon="-9.326910128321533"><ele>134.0</ele><time>2026-04-25T15:43:44Z</time></trkpt><trkpt lat="38.84602760046281" lon="-9.326937863703893"><ele>134.33333333333331</ele><time>2026-04-25T15:43:45Z</time></trkpt><trkpt lat="38.845821043472796" lon="-9.326979066231988"><ele>134.66666666666666</ele><time>2026-04-25T15:43:46Z</time></trkpt><trkpt lat="38.84560404191388" lon="-9.327019349913039"><ele>135.0</ele><time>2026-04-25T15:43:47Z</time></trkpt><trkpt lat="38.845365930911235" lon="-9.327026524722976"><ele>135.0</ele><time>2026-04-25T15:43:48Z</time></trkpt><trkpt lat="38.845148586365845" lon="-9.32704054890957"><ele>135.0</ele><time>2026-04-25T15:43:49Z</time></trkpt><trkpt lat="38.844953917826395" lon="-9.327036838578051"><ele>135.0</ele><time>2026-04-25T15:43:50Z</time></trkpt><trkpt lat="38.84476141338554" lon="-9.327037232853794"><ele>134.66666666666666</ele><time>2026-04-25T15:43:51Z</time></trkpt><trkpt lat="38.844562994239475" lon="-9.327051219151869"><ele>134.33333333333331</ele><time>2026-04-25T15:43:52Z</time></trkpt><trkpt lat="38.84436514791669" lon="-9.327129314048953"><ele>134.0</ele><time>2026-04-25T15:43:53Z</time></trkpt><trkpt lat="38.84415174929629" lon="-9.327219071537014"><ele>134.33333333333331</ele><time>2026-04-25T15:43:54Z</time></trkpt><trkpt lat="38.84395647328384" lon="-9.32730426052067"><ele>134.66666666666666</ele><time>2026-04-25T15:43:55Z</time></trkpt><trkpt lat="38.84379766132442" lon="-9.327347628270564"><ele>135.0</ele><time>2026-04-25T15:43:56Z</time></trkpt><trkpt lat="38.84365562329522" lon="-9.327378718790923"><ele>135.0</ele><time>2026-04-25T15:43:57Z</time></trkpt><trkpt lat="38.84350006297675" lon="-9.32737742776941"><ele>135.0</ele><time>2026-04-25T15:43:58Z</time></trkpt><trkpt lat="38.84332902403096" lon="-9.327343111808654"><ele>135.0</ele><time>2026-04-25T15:43:59Z</time></trkpt><trkpt lat="38.843128370287296" lon="-9.327311240123677"><ele>135.66666666666666</ele><time>2026-04-25T15:44:00Z</time></trkpt><trkpt lat="38.842923793158874" lon="-9.327280059672194"><ele>136.33333333333331</ele><time>2026-04-25T15:44:01Z</time></trkpt><trkpt lat="38.84274388547215" lon="-9.327252795636252"><ele>137.0</ele><time>2026-04-25T15:44:02Z</time></trkpt><trkpt lat="38.84258054963384" lon="-9.32723120963637"><ele>137.25</ele><time>2026-04-25T15:44:03Z</time></trkpt><trkpt lat="38.84243400805791" lon="-9.327220208819334"><ele>137.5</ele><time>2026-04-25T15:44:04Z</time></trkpt><trkpt lat="38.84229929121222" lon="-9.327206444698534"><ele>137.75</ele><time>2026-04-25T15:44:05Z</time></trkpt><trkpt lat="38.84216919586199" lon="-9.327189991073519"><ele>138.0</ele><time>2026-04-25T15:44:06Z</time></trkpt><trkpt lat="38.84204916737286" lon="-9.32720625767813"><ele>137.8</ele><time>2026-04-25T15:44:07Z</time></trkpt><trkpt lat="38.84193810379727" lon="-9.327231103964763"><ele>137.60000000000002</ele><time>2026-04-25T15:44:08Z</time></trkpt><trkpt lat="38.84183116819457" lon="-9.327256802243815"><ele>137.39999999999998</ele><time>2026-04-25T15:44:09Z</time></trkpt><trkpt lat="38.84173140809443" lon="-9.327276058178063"><ele>137.2</ele><time>2026-04-25T15:44:10Z</time></trkpt><trkpt lat="38.84164976040364" lon="-9.327286459362059"><ele>137.0</ele><time>2026-04-25T15:44:11Z</time></trkpt><trkpt lat="38.841603924536" lon="-9.32743431677424"><ele>136.66666666666666</ele><time>2026-04-25T15:44:13Z</time></trkpt><trkpt lat="38.84155562473284" lon="-9.32758073076405"><ele>136.33333333333334</ele><time>2026-04-25T15:44:14Z</time></trkpt><trkpt lat="38.84146941625538" lon="-9.327793333601162"><ele>136.0</ele><time>2026-04-25T15:44:15Z</time></trkpt><trkpt lat="38.841399565335664" lon="-9.328032711951318"><ele>136.33333333333334</ele><time>2026-04-25T15:44:16Z</time></trkpt><trkpt lat="38.841317204341195" lon="-9.328300157233334"><ele>136.66666666666666</ele><time>2026-04-25T15:44:17Z</time></trkpt><trkpt lat="38.841236821266705" lon="-9.328565256817704"><ele>137.0</ele><time>2026-04-25T15:44:18Z</time></trkpt><trkpt lat="38.84117154677133" lon="-9.328765990816022"><ele>136.75</ele><time>2026-04-25T15:44:19Z</time></trkpt><trkpt lat="38.84111657799504" lon="-9.328942028717705"><ele>136.5</ele><time>2026-04-25T15:44:20Z</time></trkpt><trkpt lat="38.84106684839064" lon="-9.329086964428075"><ele>136.25</ele><time>2026-04-25T15:44:21Z</time></trkpt><trkpt lat="38.84102726926128" lon="-9.32920042038214"><ele>136.0</ele><time>2026-04-25T15:44:22Z</time></trkpt><trkpt lat="38.841018530893926" lon="-9.32931100046187"><ele>136.75</ele><time>2026-04-25T15:44:24Z</time></trkpt><trkpt lat="38.84089381459195" lon="-9.329283175676485"><ele>137.5</ele><time>2026-04-25T15:44:27Z</time></trkpt><trkpt lat="38.84079314335759" lon="-9.329228172258418"><ele>138.25</ele><time>2026-04-25T15:44:28Z</time></trkpt><trkpt lat="38.840665613463656" lon="-9.32915661413036"><ele>139.0</ele><time>2026-04-25T15:44:29Z</time></trkpt><trkpt lat="38.840518798307464" lon="-9.329058957982182"><ele>139.0</ele><time>2026-04-25T15:44:30Z</time></trkpt><trkpt lat="38.84035329479951" lon="-9.328929321650453"><ele>139.0</ele><time>2026-04-25T15:44:31Z</time></trkpt><trkpt lat="38.84016996843389" lon="-9.328797081176717"><ele>139.0</ele><time>2026-04-25T15:44:32Z</time></trkpt><trkpt lat="38.839979834549034" lon="-9.32863436708761"><ele>138.5</ele><time>2026-04-25T15:44:33Z</time></trkpt><trkpt lat="38.839776098045746" lon="-9.328459974818418"><ele>138.0</ele><time>2026-04-25T15:44:34Z</time></trkpt><trkpt lat="38.83959913942667" lon="-9.328311252037437"><ele>138.0</ele><time>2026-04-25T15:44:35Z</time></trkpt><trkpt lat="38.839446059033634" lon="-9.328191102522325"><ele>138.0</ele><time>2026-04-25T15:44:36Z</time></trkpt><trkpt lat="38.83930312018176" lon="-9.328100230641693"><ele>138.0</ele><time>2026-04-25T15:44:37Z</time></trkpt><trkpt lat="38.83915167588814" lon="-9.328053155868442"><ele>139.66666666666666</ele><time>2026-04-25T15:44:38Z</time></trkpt><trkpt lat="38.838985959634506" lon="-9.328045547547536"><ele>141.33333333333331</ele><time>2026-04-25T15:44:39Z</time></trkpt><trkpt lat="38.83881312882431" lon="-9.328052471276568"><ele>143.0</ele><time>2026-04-25T15:44:40Z</time></trkpt><trkpt lat="38.83862689245862" lon="-9.328059715598641"><ele>142.66666666666666</ele><time>2026-04-25T15:44:41Z</time></trkpt><trkpt lat="38.838423685535915" lon="-9.328067620043239"><ele>142.33333333333334</ele><time>2026-04-25T15:44:42Z</time></trkpt><trkpt lat="38.83819828141633" lon="-9.32807443225988"><ele>142.0</ele><time>2026-04-25T15:44:43Z</time></trkpt><trkpt lat="38.83797497405302" lon="-9.328077807390647"><ele>142.0</ele><time>2026-04-25T15:44:44Z</time></trkpt><trkpt lat="38.83778737606335" lon="-9.328051418280813"><ele>142.0</ele><time>2026-04-25T15:44:45Z</time></trkpt><trkpt lat="38.83761103209571" lon="-9.328034735385245"><ele>142.0</ele><time>2026-04-25T15:44:46Z</time></trkpt><trkpt lat="38.837422762807044" lon="-9.327996654701813"><ele>142.33333333333334</ele><time>2026-04-25T15:44:47Z</time></trkpt><trkpt lat="38.837221220580254" lon="-9.327941860925211"><ele>142.66666666666666</ele><time>2026-04-25T15:44:48Z</time></trkpt><trkpt lat="38.836997001865" lon="-9.327881143051739"><ele>143.0</ele><time>2026-04-25T15:44:49Z</time></trkpt><trkpt lat="38.83678626658109" lon="-9.327832395508896"><ele>143.0</ele><time>2026-04-25T15:44:50Z</time></trkpt><trkpt lat="38.836607321149266" lon="-9.327806335012802"><ele>143.0</ele><time>2026-04-25T15:44:51Z</time></trkpt><trkpt lat="38.836445509596146" lon="-9.327776299584077"><ele>143.0</ele><time>2026-04-25T15:44:52Z</time></trkpt><trkpt lat="38.83630028565844" lon="-9.327725492480212"><ele>143.0</ele><time>2026-04-25T15:44:53Z</time></trkpt><trkpt lat="38.83615220026576" lon="-9.327638603592668"><ele>143.0</ele><time>2026-04-25T15:44:54Z</time></trkpt><trkpt lat="38.83599233614353" lon="-9.327507721756756"><ele>143.0</ele><time>2026-04-25T15:44:55Z</time></trkpt><trkpt lat="38.83582544361352" lon="-9.327361412857817"><ele>141.66666666666666</ele><time>2026-04-25T15:44:56Z</time></trkpt><trkpt lat="38.835675170857655" lon="-9.327224669167453"><ele>140.33333333333334</ele><time>2026-04-25T15:44:57Z</time></trkpt><trkpt lat="38.83553264968971" lon="-9.327138405164202"><ele>139.0</ele><time>2026-04-25T15:44:58Z</time></trkpt><trkpt lat="38.83538432933016" lon="-9.327056260361928"><ele>139.0</ele><time>2026-04-25T15:44:59Z</time></trkpt><trkpt lat="38.835230982609374" lon="-9.327023035595369"><ele>139.0</ele><time>2026-04-25T15:45:00Z</time></trkpt><trkpt lat="38.83504869761487" lon="-9.327015691732406"><ele>139.0</ele><time>2026-04-25T15:45:01Z</time></trkpt><trkpt lat="38.834842889638885" lon="-9.327012501936553"><ele>138.66666666666669</ele><time>2026-04-25T15:45:02Z</time></trkpt><trkpt lat="38.834632479054214" lon="-9.327009859966687"><ele>138.33333333333334</ele><time>2026-04-25T15:45:03Z</time></trkpt><trkpt lat="38.834451372790085" lon="-9.327007584507081"><ele>138.0</ele><time>2026-04-25T15:45:04Z</time></trkpt><trkpt lat="38.834276511188335" lon="-9.326983676861975"><ele>137.33333333333334</ele><time>2026-04-25T15:45:05Z</time></trkpt><trkpt lat="38.83411352411903" lon="-9.326975746130064"><ele>136.66666666666669</ele><time>2026-04-25T15:45:06Z</time></trkpt><trkpt lat="38.833964666422936" lon="-9.326939921506696"><ele>136.0</ele><time>2026-04-25T15:45:07Z</time></trkpt><trkpt lat="38.83379929296026" lon="-9.326841573748538"><ele>136.0</ele><time>2026-04-25T15:45:08Z</time></trkpt><trkpt lat="38.833608773277895" lon="-9.326722465705034"><ele>136.0</ele><time>2026-04-25T15:45:09Z</time></trkpt><trkpt lat="38.83340161738981" lon="-9.326585619593729"><ele>136.0</ele><time>2026-04-25T15:45:10Z</time></trkpt><trkpt lat="38.833177008521595" lon="-9.32646775407912"><ele>137.0</ele><time>2026-04-25T15:45:11Z</time></trkpt><trkpt lat="38.83297671614444" lon="-9.32634462200218"><ele>138.0</ele><time>2026-04-25T15:45:12Z</time></trkpt><trkpt lat="38.83280854065621" lon="-9.326241640405954"><ele>139.0</ele><time>2026-04-25T15:45:13Z</time></trkpt><trkpt lat="38.832653849087784" lon="-9.326145881069403"><ele>139.25</ele><time>2026-04-25T15:45:14Z</time></trkpt><trkpt lat="38.83252864973848" lon="-9.326055358038092"><ele>139.5</ele><time>2026-04-25T15:45:15Z</time></trkpt><trkpt lat="38.83241348125771" lon="-9.32598442857503"><ele>139.75</ele><time>2026-04-25T15:45:16Z</time></trkpt><trkpt lat="38.83231475049767" lon="-9.325882854185455"><ele>140.0</ele><time>2026-04-25T15:45:17Z</time></trkpt><trkpt lat="38.83224402141365" lon="-9.325740637534302"><ele>140.0</ele><time>2026-04-25T15:45:18Z</time></trkpt><trkpt lat="38.83221964721729" lon="-9.325577119255613"><ele>140.0</ele><time>2026-04-25T15:45:19Z</time></trkpt><trkpt lat="38.83222604564376" lon="-9.325373693580053"><ele>140.0</ele><time>2026-04-25T15:45:20Z</time></trkpt><trkpt lat="38.83223889504766" lon="-9.325118105511313"><ele>140.66666666666666</ele><time>2026-04-25T15:45:21Z</time></trkpt><trkpt lat="38.832250515665386" lon="-9.324844719474928"><ele>141.33333333333334</ele><time>2026-04-25T15:45:22Z</time></trkpt><trkpt lat="38.83222839543019" lon="-9.324554268397433"><ele>142.0</ele><time>2026-04-25T15:45:23Z</time></trkpt><trkpt lat="38.83221025612092" lon="-9.32426697199812"><ele>143.0</ele><time>2026-04-25T15:45:24Z</time></trkpt><trkpt lat="38.83217587219481" lon="-9.324040025727191"><ele>144.0</ele><time>2026-04-25T15:45:25Z</time></trkpt><trkpt lat="38.83214235372243" lon="-9.323839435165773"><ele>145.0</ele><time>2026-04-25T15:45:26Z</time></trkpt><trkpt lat="38.83210378179638" lon="-9.323616972502654"><ele>146.0</ele><time>2026-04-25T15:45:27Z</time></trkpt><trkpt lat="38.83208557924752" lon="-9.323430529093516"><ele>147.0</ele><time>2026-04-25T15:45:28Z</time></trkpt><trkpt lat="38.83205366898464" lon="-9.323260711110821"><ele>148.0</ele><time>2026-04-25T15:45:29Z</time></trkpt><trkpt lat="38.83202260754645" lon="-9.323058445262534"><ele>149.0</ele><time>2026-04-25T15:45:30Z</time></trkpt><trkpt lat="38.831990127997365" lon="-9.322869830165462"><ele>149.25</ele><time>2026-04-25T15:45:31Z</time></trkpt><trkpt lat="38.83193229108674" lon="-9.322727824695322"><ele>149.5</ele><time>2026-04-25T15:45:32Z</time></trkpt><trkpt lat="38.831871164605566" lon="-9.322614397091868"><ele>149.75</ele><time>2026-04-25T15:45:33Z</time></trkpt><trkpt lat="38.83181963093706" lon="-9.322520233198091"><ele>150.0</ele><time>2026-04-25T15:45:34Z</time></trkpt><trkpt lat="38.831695301985576" lon="-9.322464939736976"><ele>150.0</ele><time>2026-04-25T15:45:35Z</time></trkpt><trkpt lat="38.831542742848264" lon="-9.322359620270023"><ele>150.0</ele><time>2026-04-25T15:45:36Z</time></trkpt><trkpt lat="38.831397292362006" lon="-9.322255526332873"><ele>150.0</ele><time>2026-04-25T15:45:37Z</time></trkpt><trkpt lat="38.83126111669279" lon="-9.322179085247608"><ele>150.33333333333334</ele><time>2026-04-25T15:45:38Z</time></trkpt><trkpt lat="38.83111459066516" lon="-9.322156642171228"><ele>150.66666666666669</ele><time>2026-04-25T15:45:39Z</time></trkpt><trkpt lat="38.83093493990333" lon="-9.322129895697"><ele>151.0</ele><time>2026-04-25T15:45:40Z</time></trkpt><trkpt lat="38.830756392879394" lon="-9.322106389922807"><ele>151.0</ele><time>2026-04-25T15:45:41Z</time></trkpt><trkpt lat="38.8305826127398" lon="-9.322091436641701"><ele>151.0</ele><time>2026-04-25T15:45:42Z</time></trkpt><trkpt lat="38.8304556867975" lon="-9.32210636062124"><ele>151.0</ele><time>2026-04-25T15:45:43Z</time></trkpt><trkpt lat="38.83032565605889" lon="-9.322156599850464"><ele>151.0</ele><time>2026-04-25T15:45:44Z</time></trkpt><trkpt lat="38.830163596658814" lon="-9.322246579345366"><ele>152.33333333333334</ele><time>2026-04-25T15:45:45Z</time></trkpt><trkpt lat="38.829987737856165" lon="-9.32237032614703"><ele>153.66666666666666</ele><time>2026-04-25T15:45:46Z</time></trkpt><trkpt lat="38.82977409471845" lon="-9.32249932137953"><ele>155.0</ele><time>2026-04-25T15:45:47Z</time></trkpt><trkpt lat="38.82955370169046" lon="-9.322633415760716"><ele>155.0</ele><time>2026-04-25T15:45:48Z</time></trkpt><trkpt lat="38.82933788163036" lon="-9.322782168448947"><ele>155.0</ele><time>2026-04-25T15:45:49Z</time></trkpt><trkpt lat="38.82912271216756" lon="-9.322950802377383"><ele>154.66666666666666</ele><time>2026-04-25T15:45:50Z</time></trkpt><trkpt lat="38.82893892017683" lon="-9.323099183867875"><ele>154.33333333333334</ele><time>2026-04-25T15:45:51Z</time></trkpt><trkpt lat="38.82877708608325" lon="-9.32322992134249"><ele>154.0</ele><time>2026-04-25T15:45:52Z</time></trkpt><trkpt lat="38.82862684580598" lon="-9.323351092170372"><ele>157.66666666666669</ele><time>2026-04-25T15:45:53Z</time></trkpt><trkpt lat="38.828466814398496" lon="-9.323482278350898"><ele>161.33333333333334</ele><time>2026-04-25T15:45:54Z</time></trkpt><trkpt lat="38.828322070665415" lon="-9.323601223607513"><ele>165.0</ele><time>2026-04-25T15:45:55Z</time></trkpt><trkpt lat="38.828167971539294" lon="-9.323727916343435"><ele>165.0</ele><time>2026-04-25T15:45:56Z</time></trkpt><trkpt lat="38.82798899730394" lon="-9.32387184323333"><ele>165.0</ele><time>2026-04-25T15:45:57Z</time></trkpt><trkpt lat="38.8277944562184" lon="-9.32402324611822"><ele>165.0</ele><time>2026-04-25T15:45:58Z</time></trkpt><trkpt lat="38.827597748568024" lon="-9.32416945205628"><ele>165.66666666666666</ele><time>2026-04-25T15:45:59Z</time></trkpt><trkpt lat="38.82738082841796" lon="-9.324304779277565"><ele>166.33333333333331</ele><time>2026-04-25T15:46:00Z</time></trkpt><trkpt lat="38.82719454672595" lon="-9.324423644888748"><ele>167.0</ele><time>2026-04-25T15:46:01Z</time></trkpt><trkpt lat="38.82701444186569" lon="-9.324539606107182"><ele>167.0</ele><time>2026-04-25T15:46:02Z</time></trkpt><trkpt lat="38.826849414031216" lon="-9.324643849892814"><ele>167.0</ele><time>2026-04-25T15:46:03Z</time></trkpt><trkpt lat="38.82671114198877" lon="-9.324729522497634"><ele>167.0</ele><time>2026-04-25T15:46:04Z</time></trkpt><trkpt lat="38.82658347133306" lon="-9.3248116757257"><ele>166.25</ele><time>2026-04-25T15:46:05Z</time></trkpt><trkpt lat="38.826479000539884" lon="-9.324876641051604"><ele>165.5</ele><time>2026-04-25T15:46:06Z</time></trkpt><trkpt lat="38.826362104600975" lon="-9.324901599930694"><ele>164.75</ele><time>2026-04-25T15:46:07Z</time></trkpt><trkpt lat="38.82622614287185" lon="-9.324889232313458"><ele>164.0</ele><time>2026-04-25T15:46:08Z</time></trkpt><trkpt lat="38.826092757598" lon="-9.32484714451239"><ele>164.0</ele><time>2026-04-25T15:46:09Z</time></trkpt><trkpt lat="38.82597877329694" lon="-9.324846900745852"><ele>164.0</ele><time>2026-04-25T15:46:10Z</time></trkpt><trkpt lat="38.82586404534713" lon="-9.324827622291682"><ele>164.0</ele><time>2026-04-25T15:46:11Z</time></trkpt><trkpt lat="38.82577589708406" lon="-9.32480306377073"><ele>164.0</ele><time>2026-04-25T15:46:12Z</time></trkpt><trkpt lat="38.825685140720836" lon="-9.324752508683305"><ele>164.0</ele><time>2026-04-25T15:46:13Z</time></trkpt><trkpt lat="38.825624125729945" lon="-9.324717535240776"><ele>163.7142857142857</ele><time>2026-04-25T15:46:14Z</time></trkpt><trkpt lat="38.8255858738309" lon="-9.32478480315617"><ele>163.42857142857142</ele><time>2026-04-25T15:46:17Z</time></trkpt><trkpt lat="38.82557301963047" lon="-9.3248646884917"><ele>163.14285714285714</ele><time>2026-04-25T15:46:18Z</time></trkpt><trkpt lat="38.82555446492877" lon="-9.324945415515836"><ele>162.85714285714283</ele><time>2026-04-25T15:46:19Z</time></trkpt><trkpt lat="38.82552138133979" lon="-9.32501449081515"><ele>162.57142857142856</ele><time>2026-04-25T15:46:20Z</time></trkpt><trkpt lat="38.82547608093114" lon="-9.325090132480813"><ele>162.28571428571428</ele><time>2026-04-25T15:46:22Z</time></trkpt><trkpt lat="38.8254078529838" lon="-9.32519422973398"><ele>162.0</ele><time>2026-04-25T15:46:24Z</time></trkpt><trkpt lat="38.825360029801274" lon="-9.325266967198786"><ele>162.0</ele><time>2026-04-25T15:46:25Z</time></trkpt><trkpt lat="38.82531281908401" lon="-9.325338773349415"><ele>162.0</ele><time>2026-04-25T15:46:26Z</time></trkpt><trkpt lat="38.8252608729329" lon="-9.325407769558435"><ele>162.0</ele><time>2026-04-25T15:46:27Z</time></trkpt><trkpt lat="38.825210535033236" lon="-9.325458154662147"><ele>162.0</ele><time>2026-04-25T15:46:28Z</time></trkpt><trkpt lat="38.82512798040284" lon="-9.325469623381666"><ele>162.0</ele><time>2026-04-25T15:46:29Z</time></trkpt><trkpt lat="38.8250425804819" lon="-9.325401737951672"><ele>162.0</ele><time>2026-04-25T15:46:30Z</time></trkpt><trkpt lat="38.82498772344564" lon="-9.325308589785582"><ele>160.83333333333334</ele><time>2026-04-25T15:46:31Z</time></trkpt><trkpt lat="38.824934159198065" lon="-9.325264236290655"><ele>159.66666666666666</ele><time>2026-04-25T15:46:32Z</time></trkpt><trkpt lat="38.824876978703735" lon="-9.325230273919438"><ele>158.5</ele><time>2026-04-25T15:46:33Z</time></trkpt><trkpt lat="38.82481605857894" lon="-9.325199684535354"><ele>157.33333333333331</ele><time>2026-04-25T15:46:34Z</time></trkpt><trkpt lat="38.82473015122852" lon="-9.325157150085213"><ele>156.16666666666666</ele><time>2026-04-25T15:46:35Z</time></trkpt><trkpt lat="38.82462650213324" lon="-9.325099929094074"><ele>155.0</ele><time>2026-04-25T15:46:37Z</time></trkpt><trkpt lat="38.82454842316151" lon="-9.325056488718314"><ele>155.0</ele><time>2026-04-25T15:46:39Z</time></trkpt><trkpt lat="38.82467749132928" lon="-9.324805413925215"><ele>155.0</ele><time>2026-04-25T15:46:43Z</time></trkpt><trkpt lat="38.82470151115935" lon="-9.324889167947491"><ele>155.0</ele><time>2026-04-25T15:46:44Z</time></trkpt><trkpt lat="38.82467435027456" lon="-9.32503542242887"><ele>155.0</ele><time>2026-04-25T15:46:46Z</time></trkpt><trkpt lat="38.82459321510918" lon="-9.325039267845659"><ele>155.0</ele><time>2026-04-25T15:46:48Z</time></trkpt><trkpt lat="38.82458833632339" lon="-9.325119870379206"><ele>155.0</ele><time>2026-04-25T15:46:52Z</time></trkpt><trkpt lat="38.82468047849863" lon="-9.325143288904881"><ele>155.0</ele><time>2026-04-25T15:46:54Z</time></trkpt><trkpt lat="38.82475625575216" lon="-9.325175346586628"><ele>155.0</ele><time>2026-04-25T15:46:55Z</time></trkpt><trkpt lat="38.82484154072052" lon="-9.325177436427609"><ele>155.0</ele><time>2026-04-25T15:46:56Z</time></trkpt><trkpt lat="38.82495927349757" lon="-9.325210718204676"><ele>155.0</ele><time>2026-04-25T15:46:57Z</time></trkpt><trkpt lat="38.8250677466859" lon="-9.325293647634203"><ele>156.16666666666666</ele><time>2026-04-25T15:46:58Z</time></trkpt><trkpt lat="38.82514694808355" lon="-9.325381843418441"><ele>157.33333333333331</ele><time>2026-04-25T15:46:59Z</time></trkpt><trkpt lat="38.82520855155597" lon="-9.3254325344364"><ele>158.5</ele><time>2026-04-25T15:47:00Z</time></trkpt><trkpt lat="38.82527212330335" lon="-9.325429165152457"><ele>159.66666666666666</ele><time>2026-04-25T15:47:01Z</time></trkpt><trkpt lat="38.82533357660311" lon="-9.325366230664326"><ele>160.83333333333334</ele><time>2026-04-25T15:47:02Z</time></trkpt><trkpt lat="38.82537337672316" lon="-9.325255166117165"><ele>162.0</ele><time>2026-04-25T15:47:03Z</time></trkpt><trkpt lat="38.82542152458051" lon="-9.325149870542957"><ele>162.0</ele><time>2026-04-25T15:47:04Z</time></trkpt><trkpt lat="38.82547241364115" lon="-9.32506480766523"><ele>162.0</ele><time>2026-04-25T15:47:05Z</time></trkpt><trkpt lat="38.82554079334125" lon="-9.324990357142518"><ele>162.0</ele><time>2026-04-25T15:47:07Z</time></trkpt><trkpt lat="38.82559136239945" lon="-9.324922974732772"><ele>162.0</ele><time>2026-04-25T15:47:09Z</time></trkpt><trkpt lat="38.82561123883279" lon="-9.324811164229695"><ele>162.0</ele><time>2026-04-25T15:47:11Z</time></trkpt><trkpt lat="38.82562243994789" lon="-9.32472812052435"><ele>162.0</ele><time>2026-04-25T15:47:12Z</time></trkpt><trkpt lat="38.82560191667071" lon="-9.324635092869434"><ele>162.5</ele><time>2026-04-25T15:47:14Z</time></trkpt><trkpt lat="38.82554445485425" lon="-9.32459390426825"><ele>163.0</ele><time>2026-04-25T15:47:15Z</time></trkpt><trkpt lat="38.825508023904966" lon="-9.324414031244714"><ele>163.5</ele><time>2026-04-25T15:47:17Z</time></trkpt><trkpt lat="38.8255003615775" lon="-9.324254748002092"><ele>164.0</ele><time>2026-04-25T15:47:18Z</time></trkpt><trkpt lat="38.8254922315042" lon="-9.324056091474688"><ele>165.0</ele><time>2026-04-25T15:47:19Z</time></trkpt><trkpt lat="38.82547874988812" lon="-9.323884872355901"><ele>166.0</ele><time>2026-04-25T15:47:20Z</time></trkpt><trkpt lat="38.82546463919274" lon="-9.323727846209003"><ele>167.0</ele><time>2026-04-25T15:47:21Z</time></trkpt><trkpt lat="38.82538158219264" lon="-9.323590364153016"><ele>168.0</ele><time>2026-04-25T15:47:22Z</time></trkpt><trkpt lat="38.82531351118038" lon="-9.323425524876091"><ele>168.0</ele><time>2026-04-25T15:47:23Z</time></trkpt><trkpt lat="38.82524020508667" lon="-9.323245597369588"><ele>168.0</ele><time>2026-04-25T15:47:24Z</time></trkpt><trkpt lat="38.825166619165095" lon="-9.32308433019487"><ele>168.0</ele><time>2026-04-25T15:47:25Z</time></trkpt><trkpt lat="38.825090118768436" lon="-9.32295841369127"><ele>168.0</ele><time>2026-04-25T15:47:26Z</time></trkpt><trkpt lat="38.8250047645749" lon="-9.32287793781282"><ele>166.4</ele><time>2026-04-25T15:47:27Z</time></trkpt><trkpt lat="38.82490776167716" lon="-9.322807419674351"><ele>164.8</ele><time>2026-04-25T15:47:28Z</time></trkpt><trkpt lat="38.82480310386407" lon="-9.32273512294004"><ele>163.2</ele><time>2026-04-25T15:47:29Z</time></trkpt><trkpt lat="38.82471538812342" lon="-9.322675711874181"><ele>161.6</ele><time>2026-04-25T15:47:30Z</time></trkpt><trkpt lat="38.824645189708264" lon="-9.322629215814246"><ele>160.0</ele><time>2026-04-25T15:47:31Z</time></trkpt><trkpt lat="38.82457019329746" lon="-9.322580034828977"><ele>160.0</ele><time>2026-04-25T15:47:33Z</time></trkpt><trkpt lat="38.82470458968359" lon="-9.322429494313113"><ele>160.0</ele><time>2026-04-25T15:47:36Z</time></trkpt><trkpt lat="38.82470481313256" lon="-9.322515561500742"><ele>160.0</ele><time>2026-04-25T15:47:37Z</time></trkpt><trkpt lat="38.824776671439196" lon="-9.322441165525246"><ele>160.0</ele><time>2026-04-25T15:47:40Z</time></trkpt><trkpt lat="38.82486550248615" lon="-9.322465065683033"><ele>160.0</ele><time>2026-04-25T15:47:41Z</time></trkpt><trkpt lat="38.8249254949615" lon="-9.322500019577062"><ele>160.0</ele><time>2026-04-25T15:47:42Z</time></trkpt><trkpt lat="38.825009020325396" lon="-9.322567792028144"><ele>160.0</ele><time>2026-04-25T15:47:44Z</time></trkpt><trkpt lat="38.82500688182363" lon="-9.32268600602272"><ele>160.0</ele><time>2026-04-25T15:47:46Z</time></trkpt><trkpt lat="38.82502540506525" lon="-9.322799443105001"><ele>160.0</ele><time>2026-04-25T15:47:54.001Z</time></trkpt><trkpt lat="38.82508031892972" lon="-9.322886548545789"><ele>160.0</ele><time>2026-04-25T15:47:55.001Z</time></trkpt><trkpt lat="38.82515840448334" lon="-9.322985005377623"><ele>162.66666666666669</ele><time>2026-04-25T15:47:56.001Z</time></trkpt><trkpt lat="38.82526107842463" lon="-9.323158305880824"><ele>165.33333333333334</ele><time>2026-04-25T15:47:57.001Z</time></trkpt><trkpt lat="38.825343027805296" lon="-9.323353882635953"><ele>168.0</ele><time>2026-04-25T15:47:58.001Z</time></trkpt><trkpt lat="38.825430819986146" lon="-9.32357061796212"><ele>168.0</ele><time>2026-04-25T15:47:59.001Z</time></trkpt><trkpt lat="38.825502779483976" lon="-9.323742718866235"><ele>168.0</ele><time>2026-04-25T15:48:00.001Z</time></trkpt><trkpt lat="38.82555015852395" lon="-9.323926466065904"><ele>168.0</ele><time>2026-04-25T15:48:01.001Z</time></trkpt><trkpt lat="38.82556504227973" lon="-9.324142161470496"><ele>167.0</ele><time>2026-04-25T15:48:02.001Z</time></trkpt><trkpt lat="38.82556961076087" lon="-9.32434552675986"><ele>166.0</ele><time>2026-04-25T15:48:03.001Z</time></trkpt><trkpt lat="38.825574157154556" lon="-9.324504102858933"><ele>165.0</ele><time>2026-04-25T15:48:04.001Z</time></trkpt><trkpt lat="38.82557566141024" lon="-9.324607392485426"><ele>164.0</ele><time>2026-04-25T15:48:05.001Z</time></trkpt><trkpt lat="38.82563462758532" lon="-9.324710194594315"><ele>164.0</ele><time>2026-04-25T15:48:07.001Z</time></trkpt><trkpt lat="38.82560373101057" lon="-9.32483423883045"><ele>162.0</ele><time>2026-04-25T15:48:09.001Z</time></trkpt><trkpt lat="38.82558912424364" lon="-9.324919847125624"><ele>162.0</ele><time>2026-04-25T15:48:10.001Z</time></trkpt><trkpt lat="38.8255708118293" lon="-9.325003011850368"><ele>162.0</ele><time>2026-04-25T15:48:11.001Z</time></trkpt><trkpt lat="38.825499463091525" lon="-9.32509462998827"><ele>162.0</ele><time>2026-04-25T15:48:13.001Z</time></trkpt><trkpt lat="38.82543202456552" lon="-9.324980833276905"><ele>162.0</ele><time>2026-04-25T15:48:36.001Z</time></trkpt></trkseg></trk></gpx>